createdAt,value
2022-09-15T00:01:55.402Z,18.11
2022-09-15T00:04:26.084Z,18.10
2022-09-15T00:06:59.636Z,18.09
2022-09-15T00:09:30.037Z,18.08
2022-09-15T00:12:00.642Z,18.06
2022-09-15T00:14:31.186Z,18.01
2022-09-15T00:17:01.805Z,18.01
2022-09-15T00:19:32.646Z,18.02
2022-09-15T00:22:06.099Z,18.06
2022-09-15T00:24:36.891Z,18.09
2022-09-15T00:27:07.735Z,18.11
2022-09-15T00:29:39.045Z,18.11
2022-09-15T00:32:09.593Z,18.12
2022-09-15T00:34:40.263Z,18.15
2022-09-15T00:37:13.768Z,18.17
2022-09-15T00:39:44.461Z,18.15
2022-09-15T00:42:18.552Z,18.11
2022-09-15T00:44:53.291Z,18.07
2022-09-15T00:47:27.526Z,18.08
2022-09-15T00:50:02.387Z,18.06
2022-09-15T00:52:49.826Z,18.02
2022-09-15T00:55:25.382Z,17.99
2022-09-15T00:57:59.845Z,17.91
2022-09-15T01:00:31.556Z,17.95
2022-09-15T01:03:03.492Z,17.93
2022-09-15T01:05:39.257Z,17.92
2022-09-15T01:08:18.160Z,17.90
2022-09-15T01:10:49.373Z,17.85
2022-09-15T01:13:19.930Z,17.80
2022-09-15T01:16:06.819Z,17.79
2022-09-15T01:18:45.801Z,17.75
2022-09-15T01:21:31.537Z,17.76
2022-09-15T01:24:34.201Z,17.68
2022-09-15T01:27:38.170Z,17.74
2022-09-15T01:30:13.029Z,17.77
2022-09-15T01:33:06.825Z,17.76
2022-09-15T01:36:14.461Z,17.78
2022-09-15T01:38:53.027Z,17.76
2022-09-15T01:41:29.607Z,17.77
2022-09-15T01:44:07.245Z,17.79
2022-09-15T01:46:47.037Z,17.77
2022-09-15T01:49:22.211Z,17.75
2022-09-15T01:51:55.681Z,17.79
2022-09-15T01:54:31.427Z,17.81
2022-09-15T01:57:02.216Z,17.78
2022-09-15T01:59:32.943Z,17.78
2022-09-15T02:02:12.718Z,17.75
2022-09-15T02:04:53.455Z,17.76
2022-09-15T02:07:35.657Z,17.73
2022-09-15T02:10:13.395Z,17.68
2022-09-15T02:12:51.095Z,17.65
2022-09-15T02:15:29.270Z,17.62
2022-09-15T02:18:06.833Z,17.58
2022-09-15T02:20:49.517Z,17.57
2022-09-15T02:23:28.806Z,17.54
2022-09-15T02:26:05.161Z,17.48
2022-09-15T02:28:40.220Z,17.45
2022-09-15T02:31:20.088Z,17.29
2022-09-15T02:33:58.188Z,17.48
2022-09-15T02:36:30.884Z,17.47
2022-09-15T02:39:06.578Z,17.46
2022-09-15T02:41:38.122Z,17.44
2022-09-15T02:44:10.844Z,17.41
2022-09-15T02:46:42.087Z,17.40
2022-09-15T02:49:15.381Z,17.41
2022-09-15T02:51:45.846Z,17.41
2022-09-15T02:54:17.236Z,17.39
2022-09-15T02:56:47.833Z,17.37
2022-09-15T02:59:18.166Z,17.35
2022-09-15T03:01:48.888Z,17.34
2022-09-15T03:04:22.663Z,17.33
2022-09-15T03:06:52.945Z,17.31
2022-09-15T03:09:23.485Z,17.27
2022-09-15T03:11:53.919Z,17.22
2022-09-15T03:14:24.493Z,17.16
2022-09-15T03:16:55.107Z,17.13
2022-09-15T03:19:29.005Z,17.09
2022-09-15T03:21:59.831Z,17.05
2022-09-15T03:24:30.410Z,17.02
2022-09-15T03:27:00.900Z,16.98
2022-09-15T03:29:31.253Z,16.97
2022-09-15T03:32:01.902Z,16.97
2022-09-15T03:34:35.230Z,16.96
2022-09-15T03:37:05.704Z,16.91
2022-09-15T03:39:36.522Z,16.91
2022-09-15T03:42:07.364Z,16.89
2022-09-15T03:44:38.358Z,16.90
2022-09-15T03:47:09.092Z,16.87
2022-09-15T03:49:42.352Z,16.87
2022-09-15T03:52:12.887Z,16.85
2022-09-15T03:54:46.141Z,16.83
2022-09-15T03:57:16.645Z,16.81
2022-09-15T03:59:47.708Z,16.82
2022-09-15T04:02:19.211Z,16.83
2022-09-15T04:04:52.521Z,16.86
2022-09-15T04:07:22.950Z,16.89
2022-09-15T04:09:53.693Z,16.89
2022-09-15T04:12:23.962Z,16.93
2022-09-15T04:14:54.621Z,16.96
2022-09-15T04:17:26.314Z,16.99
2022-09-15T04:19:59.992Z,17.02
2022-09-15T04:22:34.331Z,17.03
2022-09-15T04:25:04.826Z,17.10
2022-09-15T04:27:36.526Z,17.13
2022-09-15T04:30:09.232Z,17.16
2022-09-15T04:32:39.953Z,17.21
2022-09-15T04:35:13.572Z,17.28
2022-09-15T04:37:43.849Z,17.39
2022-09-15T04:40:14.663Z,17.49
2022-09-15T04:42:45.059Z,17.60
2022-09-15T04:45:15.404Z,17.67
2022-09-15T04:47:48.551Z,17.70
2022-09-15T04:50:22.192Z,17.81
2022-09-15T04:52:52.881Z,17.84
2022-09-15T04:55:23.331Z,17.88
2022-09-15T04:57:53.666Z,17.93
2022-09-15T05:00:25.116Z,18.03
2022-09-15T05:02:55.640Z,18.13
2022-09-15T05:05:29.560Z,18.25
2022-09-15T05:08:01.067Z,18.35
2022-09-15T05:10:31.636Z,18.47
2022-09-15T05:13:02.153Z,18.61
2022-09-15T05:15:32.485Z,18.68
2022-09-15T05:18:03.046Z,18.85
2022-09-15T05:20:36.249Z,18.98
2022-09-15T05:23:06.786Z,19.09
2022-09-15T05:25:37.216Z,19.18
2022-09-15T05:28:07.971Z,19.30
2022-09-15T05:30:44.466Z,19.43
2022-09-15T05:33:15.545Z,19.56
2022-09-15T05:35:55.947Z,19.54
2022-09-15T05:38:27.629Z,19.75
2022-09-15T05:40:58.568Z,19.68
2022-09-15T05:43:29.364Z,19.86
2022-09-15T05:45:59.718Z,19.89
2022-09-15T05:48:30.896Z,19.93
2022-09-15T05:51:04.300Z,19.98
2022-09-15T05:53:36.722Z,20.01
2022-09-15T05:56:09.458Z,20.04
2022-09-15T05:58:41.965Z,20.27
2022-09-15T06:01:15.988Z,20.46
2022-09-15T06:03:47.304Z,20.71
2022-09-15T06:06:20.381Z,20.94
2022-09-15T06:08:57.479Z,21.27
2022-09-15T06:11:33.549Z,21.88
2022-09-15T06:14:06.273Z,22.52
2022-09-15T06:16:39.167Z,23.11
2022-09-15T06:19:09.855Z,23.33
2022-09-15T06:21:42.877Z,23.33
2022-09-15T06:24:15.029Z,23.07
2022-09-15T06:26:45.645Z,22.92
2022-09-15T06:29:16.155Z,22.70
2022-09-15T06:31:46.772Z,22.49
2022-09-15T06:34:17.193Z,22.50
2022-09-15T06:36:50.307Z,22.43
2022-09-15T06:39:20.743Z,22.42
2022-09-15T06:42:02.247Z,22.32
2022-09-15T06:44:34.247Z,22.51
2022-09-15T06:47:04.736Z,22.60
2022-09-15T06:49:35.058Z,22.66
2022-09-15T06:52:09.091Z,22.94
2022-09-15T06:54:39.761Z,23.15
2022-09-15T06:57:10.163Z,23.35
2022-09-15T06:59:40.948Z,23.39
2022-09-15T07:02:12.311Z,23.35
2022-09-15T07:04:42.992Z,23.31
2022-09-15T07:07:16.332Z,23.10
2022-09-15T07:09:49.613Z,23.08
2022-09-15T07:12:22.553Z,23.03
2022-09-15T07:14:53.141Z,22.95
2022-09-15T07:17:23.627Z,22.82
2022-09-15T07:19:53.997Z,22.82
2022-09-15T07:22:27.617Z,22.87
2022-09-15T07:24:58.353Z,22.83
2022-09-15T07:27:31.816Z,22.88
2022-09-15T07:30:03.976Z,23.06
2022-09-15T07:32:34.731Z,23.27
2022-09-15T07:35:06.228Z,23.13
2022-09-15T07:37:39.758Z,23.29
2022-09-15T07:40:12.245Z,23.37
2022-09-15T07:42:45.401Z,23.39
2022-09-15T07:45:16.027Z,23.44
2022-09-15T07:47:46.431Z,23.60
2022-09-15T07:50:17.032Z,23.61
2022-09-15T07:52:50.066Z,23.77
2022-09-15T07:55:20.346Z,23.77
2022-09-15T07:57:51.018Z,23.96
2022-09-15T08:00:21.671Z,23.94
2022-09-15T08:02:52.115Z,23.76
2022-09-15T08:05:22.623Z,23.70
2022-09-15T08:07:56.169Z,23.82
2022-09-15T08:10:28.014Z,23.97
2022-09-15T08:12:59.224Z,24.54
2022-09-15T08:15:30.331Z,24.92
2022-09-15T08:18:01.196Z,25.29
2022-09-15T08:20:31.960Z,25.67
2022-09-15T08:23:04.992Z,26.02
2022-09-15T08:25:35.621Z,26.14
2022-09-15T08:28:06.409Z,25.99
2022-09-15T08:30:36.892Z,25.80
2022-09-15T08:33:07.612Z,25.74
2022-09-15T08:35:38.154Z,25.55
2022-09-15T08:38:11.329Z,25.52
2022-09-15T08:40:49.062Z,25.49
2022-09-15T08:43:26.801Z,25.79
2022-09-15T08:46:01.780Z,25.85
2022-09-15T08:48:37.186Z,25.95
2022-09-15T08:51:15.382Z,26.05
2022-09-15T08:53:54.845Z,25.90
2022-09-15T08:56:25.200Z,26.17
2022-09-15T08:58:55.732Z,26.75
2022-09-15T09:01:38.694Z,26.83
2022-09-15T09:04:23.924Z,26.79
2022-09-15T09:07:07.059Z,26.72
2022-09-15T09:09:47.510Z,26.99
2022-09-15T09:12:41.250Z,27.07
2022-09-15T09:15:29.936Z,27.33
2022-09-15T09:18:20.218Z,27.10
2022-09-15T09:21:01.426Z,27.35
2022-09-15T09:23:35.269Z,27.33
2022-09-15T09:26:10.563Z,27.26
2022-09-15T09:28:45.951Z,27.58
2022-09-15T09:31:21.943Z,27.74
2022-09-15T09:33:56.933Z,28.14
2022-09-15T09:36:28.714Z,28.50
2022-09-15T09:39:00.117Z,28.61
2022-09-15T09:41:39.103Z,28.60
2022-09-15T09:44:14.084Z,29.04
2022-09-15T09:46:45.213Z,29.29
2022-09-15T09:49:23.028Z,29.25
2022-09-15T09:51:57.916Z,29.46
2022-09-15T09:54:31.265Z,29.63
2022-09-15T09:57:29.972Z,29.76
2022-09-15T10:00:00.592Z,30.10
2022-09-15T10:02:31.910Z,29.90
2022-09-15T10:05:21.418Z,30.14
2022-09-15T10:07:52.144Z,30.30
2022-09-15T10:10:25.065Z,30.23
2022-09-15T10:13:02.208Z,29.93
2022-09-15T10:15:35.285Z,29.79
2022-09-15T10:18:05.893Z,29.59
2022-09-15T10:20:41.090Z,29.74
2022-09-15T10:23:27.780Z,29.77
2022-09-15T10:26:00.748Z,29.61
2022-09-15T10:28:34.132Z,29.53
2022-09-15T10:31:07.966Z,29.31
2022-09-15T10:33:40.501Z,28.76
2022-09-15T10:36:16.868Z,28.42
2022-09-15T10:38:50.155Z,28.38
2022-09-15T10:41:30.683Z,28.13
2022-09-15T10:44:32.442Z,28.56
2022-09-15T10:47:16.400Z,28.54
2022-09-15T10:50:02.762Z,28.51
2022-09-15T10:52:44.850Z,28.20
2022-09-15T10:55:52.887Z,28.02
2022-09-15T10:58:42.172Z,28.48
2022-09-15T11:01:37.669Z,28.44
2022-09-15T11:04:20.489Z,28.06
2022-09-15T11:07:00.207Z,28.03
2022-09-15T11:09:36.856Z,28.63
2022-09-15T11:12:29.852Z,28.52
2022-09-15T11:15:21.427Z,27.93
2022-09-15T11:18:07.919Z,27.86
2022-09-15T11:20:53.656Z,27.68
2022-09-15T11:23:32.634Z,27.59
2022-09-15T11:26:09.005Z,27.82
2022-09-15T11:28:44.728Z,27.89
2022-09-15T11:31:21.596Z,27.88
2022-09-15T11:33:59.846Z,27.80
2022-09-15T11:36:37.259Z,27.91
2022-09-15T11:39:15.224Z,27.98
2022-09-15T11:41:56.631Z,28.07
2022-09-15T11:44:33.243Z,28.16
2022-09-15T11:47:18.476Z,28.21
2022-09-15T11:49:55.365Z,28.37
2022-09-15T11:52:49.457Z,28.22
2022-09-15T11:55:28.503Z,28.31
2022-09-15T11:58:08.947Z,28.48
2022-09-15T12:00:46.802Z,28.48
2022-09-15T12:03:24.679Z,28.43
2022-09-15T12:06:02.385Z,28.45
2022-09-15T12:08:37.645Z,28.53
2022-09-15T12:11:13.632Z,28.48
2022-09-15T12:13:44.863Z,28.78
2022-09-15T12:16:15.912Z,28.87
2022-09-15T12:18:52.828Z,28.61
2022-09-15T12:21:36.762Z,28.73
2022-09-15T12:24:16.779Z,28.56
2022-09-15T12:26:48.858Z,28.69
2022-09-15T12:29:42.237Z,28.72
2022-09-15T12:32:39.203Z,28.77
2022-09-15T12:35:34.139Z,28.95
2022-09-15T12:38:07.214Z,29.18
2022-09-15T12:40:39.827Z,29.31
2022-09-15T12:43:23.699Z,29.51
2022-09-15T12:45:59.778Z,29.56
2022-09-15T12:48:33.903Z,29.60
2022-09-15T12:51:07.260Z,29.56
2022-09-15T12:53:49.299Z,29.05
2022-09-15T12:56:27.226Z,29.09
2022-09-15T12:58:59.391Z,29.06
2022-09-15T13:01:51.173Z,28.68
2022-09-15T13:04:54.913Z,28.52
2022-09-15T13:07:55.692Z,28.48
2022-09-15T13:10:36.296Z,28.44
2022-09-15T13:13:22.678Z,28.50
2022-09-15T13:15:56.384Z,28.49
2022-09-15T13:18:29.007Z,28.35
2022-09-15T13:21:05.928Z,28.41
2022-09-15T13:23:41.131Z,28.38
2022-09-15T13:26:22.772Z,28.28
2022-09-15T13:28:56.388Z,28.43
2022-09-15T13:31:37.815Z,28.38
2022-09-15T13:38:16.754Z,28.58
2022-09-15T13:41:13.178Z,28.36
2022-09-15T13:44:08.735Z,28.00
2022-09-15T13:46:51.318Z,27.84
2022-09-15T13:49:38.177Z,27.62
2022-09-15T13:52:22.362Z,27.59
2022-09-15T13:55:11.254Z,27.36
2022-09-15T14:00:45.467Z,27.01
2022-09-15T14:03:23.999Z,26.90
2022-09-15T14:05:55.326Z,26.79
2022-09-15T14:08:30.425Z,26.65
2022-09-15T14:11:03.636Z,26.56
2022-09-15T14:13:34.512Z,26.40
2022-09-15T14:16:11.975Z,26.25
2022-09-15T14:18:48.519Z,26.08
2022-09-15T14:21:21.051Z,25.77
2022-09-15T14:23:52.969Z,25.40
2022-09-15T14:26:26.701Z,24.79
2022-09-15T14:29:00.119Z,24.11
2022-09-15T14:31:36.070Z,23.65
2022-09-15T14:34:09.917Z,23.17
2022-09-15T14:36:40.159Z,22.95
2022-09-15T14:39:21.645Z,22.76
2022-09-15T14:41:52.573Z,22.61
2022-09-15T14:47:31.984Z,21.86
2022-09-15T14:50:10.148Z,21.73
2022-09-15T14:52:44.061Z,21.34
2022-09-15T14:55:16.908Z,21.17
2022-09-15T14:57:53.086Z,21.04
2022-09-15T15:00:27.004Z,20.96
2022-09-15T15:03:03.997Z,20.97
2022-09-15T15:05:40.825Z,21.02
2022-09-15T15:08:16.009Z,21.08
2022-09-15T15:10:46.327Z,21.15
2022-09-15T15:13:19.375Z,21.19
2022-09-15T15:15:49.938Z,21.24
2022-09-15T15:18:43.500Z,21.25
2022-09-15T15:21:37.538Z,21.26
2022-09-15T15:24:22.212Z,21.26
2022-09-15T15:26:53.779Z,21.19
2022-09-15T15:29:43.290Z,21.24
2022-09-15T15:32:16.479Z,21.21
2022-09-15T15:34:57.807Z,21.21
2022-09-15T15:37:31.038Z,21.21
2022-09-15T15:40:04.255Z,21.23
2022-09-15T15:42:34.820Z,21.25
2022-09-15T15:45:08.212Z,21.27
2022-09-15T15:47:39.862Z,21.26
2022-09-15T15:50:21.997Z,21.31
2022-09-15T15:52:53.177Z,21.29
2022-09-15T15:55:24.995Z,21.23
2022-09-15T15:57:57.048Z,21.18
2022-09-15T16:00:31.850Z,21.10
2022-09-15T16:03:02.080Z,21.07
2022-09-15T16:05:35.718Z,21.04
2022-09-15T16:08:09.017Z,20.99
2022-09-15T16:10:44.502Z,20.87
2022-09-15T16:13:17.463Z,20.83
2022-09-15T16:15:48.646Z,20.70
2022-09-15T16:18:19.188Z,20.68
2022-09-15T16:20:52.111Z,20.67
2022-09-15T16:23:24.011Z,20.63
2022-09-15T16:25:57.997Z,20.64
2022-09-15T16:28:28.837Z,20.58
2022-09-15T16:30:59.605Z,20.52
2022-09-15T16:33:31.707Z,20.52
2022-09-15T16:36:09.439Z,20.54
2022-09-15T16:38:39.730Z,20.47
2022-09-15T16:41:17.860Z,20.34
2022-09-15T16:43:49.233Z,20.34
2022-09-15T16:46:19.546Z,20.31
2022-09-15T16:48:50.100Z,20.29
2022-09-15T16:51:30.667Z,20.30
2022-09-15T16:54:02.152Z,20.26
2022-09-15T16:56:32.318Z,20.24
2022-09-15T16:59:02.688Z,20.20
2022-09-15T17:01:32.972Z,20.15
2022-09-15T17:04:04.911Z,20.09
2022-09-15T17:06:37.820Z,20.04
2022-09-15T17:09:08.132Z,19.96
2022-09-15T17:11:38.363Z,19.94
2022-09-15T17:14:08.537Z,19.87
2022-09-15T17:16:38.739Z,19.82
2022-09-15T17:19:09.073Z,19.77
2022-09-15T17:21:42.002Z,19.69
2022-09-15T17:24:12.406Z,19.66
2022-09-15T17:26:42.664Z,19.64
2022-09-15T17:29:13.600Z,19.69
2022-09-15T17:31:44.179Z,19.65
2022-09-15T17:34:16.232Z,19.66
2022-09-15T17:36:49.057Z,19.62
2022-09-15T17:39:19.465Z,19.54
2022-09-15T17:41:49.824Z,19.50
2022-09-15T17:44:20.125Z,19.47
2022-09-15T17:46:50.339Z,19.46
2022-09-15T17:49:20.804Z,19.38
2022-09-15T17:51:53.617Z,19.33
2022-09-15T17:54:23.871Z,19.40
2022-09-15T17:56:54.104Z,19.33
2022-09-15T17:59:24.374Z,19.38
2022-09-15T18:01:54.744Z,19.42
2022-09-15T18:04:24.935Z,19.47
2022-09-15T18:06:57.722Z,19.53
2022-09-15T18:09:28.035Z,19.61
2022-09-15T18:11:58.368Z,19.60
2022-09-15T18:14:28.593Z,19.60
2022-09-15T18:16:59.562Z,19.58
2022-09-15T18:19:30.320Z,19.56
2022-09-15T18:22:04.878Z,19.53
2022-09-15T18:24:35.867Z,19.47
2022-09-15T18:27:06.441Z,19.45
2022-09-15T18:29:37.823Z,19.41
2022-09-15T18:32:08.398Z,19.34
2022-09-15T18:34:38.678Z,19.24
2022-09-15T18:37:11.549Z,19.23
2022-09-15T18:39:42.511Z,19.22
2022-09-15T18:42:13.025Z,19.16
2022-09-15T18:44:43.299Z,19.18
2022-09-15T18:47:13.655Z,19.22
2022-09-15T18:49:43.861Z,19.23
2022-09-15T18:52:17.439Z,19.28
2022-09-15T18:54:48.088Z,19.29
2022-09-15T18:57:18.409Z,19.30
2022-09-15T18:59:49.842Z,19.21
2022-09-15T19:02:20.424Z,19.28
2022-09-15T19:04:51.118Z,19.27
2022-09-15T19:07:28.268Z,19.23
2022-09-15T19:09:59.182Z,19.20
2022-09-15T19:12:29.890Z,19.17
2022-09-15T19:15:03.008Z,19.14
2022-09-15T19:17:33.593Z,19.14
2022-09-15T19:20:03.950Z,19.13
2022-09-15T19:22:37.241Z,19.08
2022-09-15T19:25:09.183Z,18.98
2022-09-15T19:27:40.410Z,18.98
2022-09-15T19:30:12.762Z,19.07
2022-09-15T19:32:44.086Z,19.01
2022-09-15T19:35:14.276Z,18.98
2022-09-15T19:37:47.216Z,18.95
2022-09-15T19:40:18.359Z,18.96
2022-09-15T19:42:48.801Z,18.88
2022-09-15T19:45:21.853Z,18.94
2022-09-15T19:47:52.000Z,18.93
2022-09-15T19:50:22.343Z,18.92
2022-09-15T19:52:59.439Z,18.90
2022-09-15T19:55:29.924Z,18.88
2022-09-15T19:58:00.115Z,18.86
2022-09-15T20:00:30.875Z,18.86
2022-09-15T20:03:01.064Z,18.80
2022-09-15T20:05:31.395Z,18.82
2022-09-15T20:08:04.426Z,18.80
2022-09-15T20:10:34.628Z,18.81
2022-09-15T20:13:04.852Z,18.78
2022-09-15T20:15:35.053Z,18.77
2022-09-15T20:18:05.296Z,18.77
2022-09-15T20:20:35.860Z,18.78
2022-09-15T20:23:08.809Z,18.77
2022-09-15T20:25:38.978Z,18.77
2022-09-15T20:28:09.191Z,18.72
2022-09-15T20:30:39.782Z,18.75
2022-09-15T20:33:10.077Z,18.71
2022-09-15T20:35:40.232Z,18.68
2022-09-15T20:38:12.990Z,18.72
2022-09-15T20:40:43.187Z,18.71
2022-09-15T20:43:13.353Z,18.64
2022-09-15T20:45:43.499Z,18.61
2022-09-15T20:48:13.895Z,18.56
2022-09-15T20:50:44.130Z,18.58
2022-09-15T20:53:17.192Z,18.50
2022-09-15T20:55:52.333Z,18.63
2022-09-15T20:58:22.670Z,18.68
2022-09-15T21:00:53.376Z,18.71
2022-09-15T21:03:23.617Z,18.71
2022-09-15T21:06:01.607Z,18.67
2022-09-15T21:08:34.595Z,18.66
2022-09-15T21:11:06.068Z,18.66
2022-09-15T21:13:38.563Z,18.63
2022-09-15T21:16:10.906Z,18.62
2022-09-15T21:18:42.935Z,18.61
2022-09-15T21:21:15.894Z,18.60
2022-09-15T21:23:50.128Z,18.59
2022-09-15T21:26:21.970Z,18.58
2022-09-15T21:28:52.852Z,18.58
2022-09-15T21:31:27.996Z,18.60
2022-09-15T21:33:59.597Z,18.60
2022-09-15T21:36:30.992Z,18.61
2022-09-15T21:39:03.869Z,18.60
2022-09-15T21:41:34.058Z,18.60
2022-09-15T21:44:04.606Z,18.62
2022-09-15T21:46:35.011Z,18.60
2022-09-15T21:49:05.474Z,18.57
2022-09-15T21:51:36.429Z,18.57
2022-09-15T21:54:09.770Z,18.57
2022-09-15T21:56:40.007Z,18.53
2022-09-15T21:59:11.133Z,18.51
2022-09-15T22:01:42.926Z,18.48
2022-09-15T22:04:13.558Z,18.47
2022-09-15T22:06:45.218Z,18.46
2022-09-15T22:09:21.522Z,18.44
2022-09-15T22:11:52.263Z,18.41
2022-09-15T22:14:22.487Z,18.39
2022-09-15T22:16:52.718Z,18.35
2022-09-15T22:19:23.006Z,18.36
2022-09-15T22:21:53.178Z,18.32
2022-09-15T22:24:26.856Z,18.30
2022-09-15T22:26:57.068Z,18.28
2022-09-15T22:29:27.240Z,18.28
2022-09-15T22:31:57.458Z,18.25
2022-09-15T22:34:29.282Z,18.25
2022-09-15T22:36:59.388Z,18.25
2022-09-15T22:39:57.247Z,18.25
2022-09-15T22:42:22.838Z,18.24
2022-09-15T22:44:52.971Z,18.25
2022-09-15T22:47:23.040Z,18.23
2022-09-15T22:49:53.388Z,18.21
2022-09-15T22:52:24.006Z,18.18
2022-09-15T22:54:56.819Z,18.17
2022-09-15T22:57:27.070Z,18.21
2022-09-15T22:59:57.605Z,18.19
2022-09-15T23:02:27.770Z,18.17
2022-09-15T23:04:58.004Z,18.12
2022-09-15T23:07:28.250Z,18.09
2022-09-15T23:10:01.232Z,18.04
2022-09-15T23:12:33.106Z,18.02
2022-09-15T23:15:04.771Z,17.99
2022-09-15T23:17:35.013Z,17.98
2022-09-15T23:20:05.958Z,17.97
2022-09-15T23:22:36.238Z,17.94
2022-09-15T23:25:09.705Z,17.91
2022-09-15T23:27:39.885Z,17.89
2022-09-15T23:30:12.466Z,17.87
2022-09-15T23:32:42.692Z,17.87
2022-09-15T23:35:12.991Z,17.86
2022-09-15T23:37:43.112Z,17.87
2022-09-15T23:40:16.752Z,17.87
2022-09-15T23:42:46.967Z,17.89
2022-09-15T23:45:17.331Z,17.92
2022-09-15T23:47:47.497Z,17.97
2022-09-15T23:50:17.804Z,17.99
2022-09-15T23:52:48.198Z,17.99
2022-09-15T23:55:21.042Z,18.02
2022-09-15T23:57:51.221Z,18.00
